Flight NumberIRM4593 Date06.05.2018
Departure AirportOIII Arrival AirportOIKB
Departure Time18.42Arrival Time20.09
Pilot In CommandSaeed TabaTabaei Block Time1.40 Hours
Pilot Rating100 % AircraftEP-MNK [ A300-600 ]


Distance571.00 Nm. Passengers280
Fuel Used8,219 Kg. Cargo12635 Kg
Expense Details Income Details
Fuel Cost6,855 v$Ticket Sales49,560 v$
Pilot Salary5,508 v$ Cargo income21,624.00 v$
Crew Salary1,400 v$ Bonus13,114 v$
Gross Profit73,179 v$ ( 731,790 v$ )

Client Versionv2.2.0.rc3 Max Simrate1
Flight Critique Pilot CommentsOIKB 061800Z 17004KT 7000 NSC 29/22 Q1005 A2968// VORDME1 ILS RWY 21L